sensor_id;sensor_type;location;lat;lon;timestamp;P1;durP1;ratioP1;P2;durP2;ratioP2
58446;SDS011;44240;51.840;7.258;2024-01-30T00:02:02;9.63;;;6.05;;
58446;SDS011;44240;51.840;7.258;2024-01-30T00:04:29;12.68;;;6.60;;
58446;SDS011;44240;51.840;7.258;2024-01-30T00:06:56;10.70;;;6.68;;
58446;SDS011;44240;51.840;7.258;2024-01-30T00:09:23;8.15;;;5.40;;
58446;SDS011;44240;51.840;7.258;2024-01-30T00:11:50;9.85;;;6.60;;
58446;SDS011;44240;51.840;7.258;2024-01-30T00:14:17;10.05;;;6.47;;
58446;SDS011;44240;51.840;7.258;2024-01-30T00:16:43;10.70;;;6.97;;
58446;SDS011;44240;51.840;7.258;2024-01-30T00:19:10;10.13;;;5.95;;
58446;SDS011;44240;51.840;7.258;2024-01-30T00:21:38;9.90;;;6.43;;
58446;SDS011;44240;51.840;7.258;2024-01-30T00:24:04;10.77;;;7.35;;
58446;SDS011;44240;51.840;7.258;2024-01-30T00:26:31;9.38;;;7.10;;
58446;SDS011;44240;51.840;7.258;2024-01-30T00:28:58;10.23;;;7.00;;
58446;SDS011;44240;51.840;7.258;2024-01-30T00:31:25;11.73;;;6.82;;
58446;SDS011;44240;51.840;7.258;2024-01-30T00:33:52;12.70;;;8.48;;
58446;SDS011;44240;51.840;7.258;2024-01-30T00:36:19;12.13;;;6.57;;
58446;SDS011;44240;51.840;7.258;2024-01-30T00:38:46;11.88;;;7.50;;
58446;SDS011;44240;51.840;7.258;2024-01-30T00:41:12;11.52;;;7.22;;
58446;SDS011;44240;51.840;7.258;2024-01-30T00:43:39;12.93;;;7.13;;
58446;SDS011;44240;51.840;7.258;2024-01-30T00:46:06;10.05;;;6.35;;
58446;SDS011;44240;51.840;7.258;2024-01-30T00:48:33;13.43;;;7.72;;
58446;SDS011;44240;51.840;7.258;2024-01-30T00:51:00;12.57;;;7.03;;
58446;SDS011;44240;51.840;7.258;2024-01-30T00:53:26;12.43;;;7.40;;
58446;SDS011;44240;51.840;7.258;2024-01-30T00:55:53;11.80;;;7.05;;
58446;SDS011;44240;51.840;7.258;2024-01-30T00:58:20;11.32;;;7.05;;
58446;SDS011;44240;51.840;7.258;2024-01-30T01:00:47;8.65;;;6.68;;
58446;SDS011;44240;51.840;7.258;2024-01-30T01:03:14;11.32;;;6.93;;
58446;SDS011;44240;51.840;7.258;2024-01-30T01:05:41;10.40;;;6.80;;
58446;SDS011;44240;51.840;7.258;2024-01-30T01:08:08;12.85;;;6.93;;
58446;SDS011;44240;51.840;7.258;2024-01-30T01:10:35;11.13;;;6.65;;
58446;SDS011;44240;51.840;7.258;2024-01-30T01:13:02;10.48;;;6.32;;
58446;SDS011;44240;51.840;7.258;2024-01-30T01:15:29;9.20;;;5.88;;
58446;SDS011;44240;51.840;7.258;2024-01-30T01:17:56;12.00;;;6.53;;
58446;SDS011;44240;51.840;7.258;2024-01-30T01:20:23;9.88;;;6.10;;
58446;SDS011;44240;51.840;7.258;2024-01-30T01:22:49;12.10;;;6.70;;
58446;SDS011;44240;51.840;7.258;2024-01-30T01:25:16;8.02;;;6.70;;
58446;SDS011;44240;51.840;7.258;2024-01-30T01:27:43;11.77;;;6.75;;
58446;SDS011;44240;51.840;7.258;2024-01-30T01:30:17;9.55;;;6.28;;
58446;SDS011;44240;51.840;7.258;2024-01-30T01:32:52;8.35;;;5.90;;
58446;SDS011;44240;51.840;7.258;2024-01-30T01:35:23;10.43;;;6.63;;
58446;SDS011;44240;51.840;7.258;2024-01-30T01:37:51;9.80;;;5.78;;
58446;SDS011;44240;51.840;7.258;2024-01-30T01:40:22;12.50;;;6.25;;
58446;SDS011;44240;51.840;7.258;2024-01-30T01:42:53;10.98;;;6.28;;
58446;SDS011;44240;51.840;7.258;2024-01-30T01:45:21;8.80;;;5.60;;
58446;SDS011;44240;51.840;7.258;2024-01-30T01:47:50;11.07;;;6.35;;
58446;SDS011;44240;51.840;7.258;2024-01-30T01:50:18;11.70;;;7.00;;
58446;SDS011;44240;51.840;7.258;2024-01-30T01:52:47;10.40;;;6.40;;
58446;SDS011;44240;51.840;7.258;2024-01-30T01:55:15;8.07;;;5.55;;
58446;SDS011;44240;51.840;7.258;2024-01-30T01:57:43;9.00;;;6.38;;
58446;SDS011;44240;51.840;7.258;2024-01-30T02:00:12;11.68;;;6.15;;
58446;SDS011;44240;51.840;7.258;2024-01-30T02:02:39;11.07;;;6.72;;
58446;SDS011;44240;51.840;7.258;2024-01-30T02:05:07;9.60;;;6.43;;
58446;SDS011;44240;51.840;7.258;2024-01-30T02:07:35;9.45;;;6.15;;
58446;SDS011;44240;51.840;7.258;2024-01-30T02:10:01;9.95;;;6.35;;
58446;SDS011;44240;51.840;7.258;2024-01-30T02:12:30;10.88;;;7.10;;
58446;SDS011;44240;51.840;7.258;2024-01-30T02:14:56;11.50;;;7.10;;
58446;SDS011;44240;51.840;7.258;2024-01-30T02:17:24;9.30;;;6.40;;
58446;SDS011;44240;51.840;7.258;2024-01-30T02:19:51;10.23;;;6.60;;
58446;SDS011;44240;51.840;7.258;2024-01-30T02:22:18;10.90;;;6.85;;
58446;SDS011;44240;51.840;7.258;2024-01-30T02:24:46;11.25;;;6.90;;
58446;SDS011;44240;51.840;7.258;2024-01-30T02:27:13;10.07;;;5.57;;
58446;SDS011;44240;51.840;7.258;2024-01-30T02:29:40;10.52;;;7.18;;
58446;SDS011;44240;51.840;7.258;2024-01-30T02:32:07;10.60;;;6.82;;
58446;SDS011;44240;51.840;7.258;2024-01-30T02:34:33;9.15;;;5.88;;
58446;SDS011;44240;51.840;7.258;2024-01-30T02:37:01;10.15;;;6.13;;
58446;SDS011;44240;51.840;7.258;2024-01-30T02:39:28;9.88;;;6.47;;
58446;SDS011;44240;51.840;7.258;2024-01-30T02:41:54;9.65;;;6.10;;
58446;SDS011;44240;51.840;7.258;2024-01-30T02:44:21;10.00;;;5.97;;
58446;SDS011;44240;51.840;7.258;2024-01-30T02:46:48;9.38;;;5.90;;
58446;SDS011;44240;51.840;7.258;2024-01-30T02:49:15;9.95;;;6.50;;
58446;SDS011;44240;51.840;7.258;2024-01-30T02:51:42;8.88;;;5.30;;
58446;SDS011;44240;51.840;7.258;2024-01-30T02:54:09;9.25;;;6.22;;
58446;SDS011;44240;51.840;7.258;2024-01-30T02:56:36;10.40;;;6.45;;
58446;SDS011;44240;51.840;7.258;2024-01-30T02:59:02;10.52;;;5.75;;
58446;SDS011;44240;51.840;7.258;2024-01-30T03:01:29;10.50;;;6.05;;
58446;SDS011;44240;51.840;7.258;2024-01-30T03:03:58;10.30;;;5.80;;
58446;SDS011;44240;51.840;7.258;2024-01-30T03:06:24;10.85;;;6.68;;
58446;SDS011;44240;51.840;7.258;2024-01-30T03:08:51;10.40;;;6.05;;
58446;SDS011;44240;51.840;7.258;2024-01-30T03:11:18;9.35;;;5.68;;
58446;SDS011;44240;51.840;7.258;2024-01-30T03:13:45;9.30;;;6.18;;
58446;SDS011;44240;51.840;7.258;2024-01-30T03:16:11;9.52;;;6.03;;
58446;SDS011;44240;51.840;7.258;2024-01-30T03:18:38;10.73;;;6.45;;
58446;SDS011;44240;51.840;7.258;2024-01-30T03:21:05;10.65;;;6.45;;
58446;SDS011;44240;51.840;7.258;2024-01-30T03:23:32;12.38;;;7.03;;
58446;SDS011;44240;51.840;7.258;2024-01-30T03:25:58;9.60;;;6.60;;
58446;SDS011;44240;51.840;7.258;2024-01-30T03:28:25;8.75;;;6.65;;
58446;SDS011;44240;51.840;7.258;2024-01-30T03:30:52;9.82;;;5.93;;
58446;SDS011;44240;51.840;7.258;2024-01-30T03:33:19;10.45;;;6.25;;
58446;SDS011;44240;51.840;7.258;2024-01-30T03:35:46;9.82;;;6.57;;
58446;SDS011;44240;51.840;7.258;2024-01-30T03:38:12;11.57;;;7.22;;
58446;SDS011;44240;51.840;7.258;2024-01-30T03:40:39;9.40;;;6.32;;
58446;SDS011;44240;51.840;7.258;2024-01-30T03:43:06;9.23;;;6.32;;
58446;SDS011;44240;51.840;7.258;2024-01-30T03:45:33;9.45;;;5.88;;
58446;SDS011;44240;51.840;7.258;2024-01-30T03:48:00;12.23;;;6.43;;
58446;SDS011;44240;51.840;7.258;2024-01-30T03:50:26;12.77;;;6.88;;
58446;SDS011;44240;51.840;7.258;2024-01-30T03:52:55;9.02;;;5.90;;
58446;SDS011;44240;51.840;7.258;2024-01-30T03:55:22;9.90;;;6.18;;
58446;SDS011;44240;51.840;7.258;2024-01-30T03:57:49;11.35;;;6.55;;
58446;SDS011;44240;51.840;7.258;2024-01-30T04:00:15;10.05;;;6.70;;
58446;SDS011;44240;51.840;7.258;2024-01-30T04:02:42;11.55;;;7.00;;
58446;SDS011;44240;51.840;7.258;2024-01-30T04:05:09;12.57;;;6.57;;
58446;SDS011;44240;51.840;7.258;2024-01-30T04:07:36;9.82;;;6.28;;
58446;SDS011;44240;51.840;7.258;2024-01-30T04:10:03;10.18;;;6.85;;
58446;SDS011;44240;51.840;7.258;2024-01-30T04:12:32;9.93;;;6.95;;
58446;SDS011;44240;51.840;7.258;2024-01-30T04:14:58;11.23;;;7.70;;
58446;SDS011;44240;51.840;7.258;2024-01-30T04:17:25;11.68;;;6.78;;
58446;SDS011;44240;51.840;7.258;2024-01-30T04:19:52;11.15;;;6.97;;
58446;SDS011;44240;51.840;7.258;2024-01-30T04:22:19;10.35;;;6.60;;
58446;SDS011;44240;51.840;7.258;2024-01-30T04:24:46;11.20;;;6.93;;
58446;SDS011;44240;51.840;7.258;2024-01-30T04:27:13;9.93;;;6.28;;
58446;SDS011;44240;51.840;7.258;2024-01-30T04:29:39;12.52;;;7.03;;
58446;SDS011;44240;51.840;7.258;2024-01-30T04:32:06;9.77;;;6.65;;
58446;SDS011;44240;51.840;7.258;2024-01-30T04:34:33;12.18;;;6.55;;
58446;SDS011;44240;51.840;7.258;2024-01-30T04:37:00;11.15;;;7.00;;
58446;SDS011;44240;51.840;7.258;2024-01-30T04:39:27;11.38;;;6.93;;
58446;SDS011;44240;51.840;7.258;2024-01-30T04:41:54;11.40;;;7.38;;
58446;SDS011;44240;51.840;7.258;2024-01-30T04:44:20;11.43;;;7.05;;
58446;SDS011;44240;51.840;7.258;2024-01-30T04:46:47;12.05;;;7.30;;
58446;SDS011;44240;51.840;7.258;2024-01-30T04:49:14;12.38;;;7.47;;
58446;SDS011;44240;51.840;7.258;2024-01-30T04:51:41;14.35;;;8.35;;
58446;SDS011;44240;51.840;7.258;2024-01-30T04:54:08;10.95;;;7.80;;
58446;SDS011;44240;51.840;7.258;2024-01-30T04:56:34;12.20;;;7.50;;
58446;SDS011;44240;51.840;7.258;2024-01-30T04:59:02;14.80;;;7.53;;
58446;SDS011;44240;51.840;7.258;2024-01-30T05:01:29;13.02;;;7.43;;
58446;SDS011;44240;51.840;7.258;2024-01-30T05:03:56;11.32;;;7.47;;
58446;SDS011;44240;51.840;7.258;2024-01-30T05:06:24;13.55;;;7.30;;
58446;SDS011;44240;51.840;7.258;2024-01-30T05:08:54;12.35;;;7.18;;
58446;SDS011;44240;51.840;7.258;2024-01-30T05:11:21;11.75;;;7.57;;
58446;SDS011;44240;51.840;7.258;2024-01-30T05:13:48;11.05;;;7.03;;
58446;SDS011;44240;51.840;7.258;2024-01-30T05:16:14;11.85;;;8.45;;
58446;SDS011;44240;51.840;7.258;2024-01-30T05:18:41;12.15;;;6.97;;
58446;SDS011;44240;51.840;7.258;2024-01-30T05:21:08;9.32;;;7.03;;
58446;SDS011;44240;51.840;7.258;2024-01-30T05:23:36;17.15;;;7.22;;
58446;SDS011;44240;51.840;7.258;2024-01-30T05:26:03;11.77;;;7.25;;
58446;SDS011;44240;51.840;7.258;2024-01-30T05:28:30;12.45;;;6.65;;
58446;SDS011;44240;51.840;7.258;2024-01-30T05:30:57;12.65;;;7.13;;
58446;SDS011;44240;51.840;7.258;2024-01-30T05:33:24;13.43;;;6.97;;
58446;SDS011;44240;51.840;7.258;2024-01-30T05:35:51;11.48;;;7.10;;
58446;SDS011;44240;51.840;7.258;2024-01-30T05:38:20;9.80;;;6.68;;
58446;SDS011;44240;51.840;7.258;2024-01-30T05:40:47;14.77;;;7.60;;
58446;SDS011;44240;51.840;7.258;2024-01-30T05:43:14;13.20;;;7.95;;
58446;SDS011;44240;51.840;7.258;2024-01-30T05:45:41;12.07;;;7.80;;
58446;SDS011;44240;51.840;7.258;2024-01-30T05:48:08;11.82;;;6.97;;
58446;SDS011;44240;51.840;7.258;2024-01-30T05:50:35;13.27;;;8.20;;
58446;SDS011;44240;51.840;7.258;2024-01-30T05:53:01;13.75;;;8.05;;
58446;SDS011;44240;51.840;7.258;2024-01-30T05:55:28;15.85;;;9.25;;
58446;SDS011;44240;51.840;7.258;2024-01-30T05:57:55;11.95;;;7.72;;
58446;SDS011;44240;51.840;7.258;2024-01-30T06:00:22;12.57;;;8.90;;
58446;SDS011;44240;51.840;7.258;2024-01-30T06:02:49;11.90;;;8.20;;
58446;SDS011;44240;51.840;7.258;2024-01-30T06:05:16;13.27;;;8.13;;
58446;SDS011;44240;51.840;7.258;2024-01-30T06:07:43;12.02;;;7.65;;
58446;SDS011;44240;51.840;7.258;2024-01-30T06:10:09;14.30;;;7.72;;
58446;SDS011;44240;51.840;7.258;2024-01-30T06:12:37;13.57;;;7.72;;
58446;SDS011;44240;51.840;7.258;2024-01-30T06:15:04;12.00;;;7.55;;
58446;SDS011;44240;51.840;7.258;2024-01-30T06:17:31;14.02;;;7.60;;
58446;SDS011;44240;51.840;7.258;2024-01-30T06:19:58;13.48;;;7.80;;
58446;SDS011;44240;51.840;7.258;2024-01-30T06:22:25;10.82;;;6.97;;
58446;SDS011;44240;51.840;7.258;2024-01-30T06:24:52;10.93;;;8.05;;
58446;SDS011;44240;51.840;7.258;2024-01-30T06:27:19;11.77;;;8.20;;
58446;SDS011;44240;51.840;7.258;2024-01-30T06:29:46;13.25;;;7.55;;
58446;SDS011;44240;51.840;7.258;2024-01-30T06:32:12;11.73;;;7.32;;
58446;SDS011;44240;51.840;7.258;2024-01-30T06:34:40;11.70;;;7.10;;
58446;SDS011;44240;51.840;7.258;2024-01-30T06:37:07;12.00;;;7.32;;
58446;SDS011;44240;51.840;7.258;2024-01-30T06:39:34;12.48;;;7.53;;
58446;SDS011;44240;51.840;7.258;2024-01-30T06:42:01;12.18;;;7.70;;
58446;SDS011;44240;51.840;7.258;2024-01-30T06:44:28;12.68;;;7.13;;
58446;SDS011;44240;51.840;7.258;2024-01-30T06:46:58;12.88;;;8.00;;
58446;SDS011;44240;51.840;7.258;2024-01-30T06:49:25;11.93;;;7.35;;
58446;SDS011;44240;51.840;7.258;2024-01-30T06:51:52;9.00;;;6.20;;
58446;SDS011;44240;51.840;7.258;2024-01-30T06:54:19;8.88;;;6.68;;
58446;SDS011;44240;51.840;7.258;2024-01-30T06:56:46;8.82;;;6.82;;
58446;SDS011;44240;51.840;7.258;2024-01-30T06:59:12;9.55;;;6.70;;
58446;SDS011;44240;51.840;7.258;2024-01-30T07:01:39;10.18;;;7.28;;
58446;SDS011;44240;51.840;7.258;2024-01-30T07:04:06;11.23;;;7.75;;
58446;SDS011;44240;51.840;7.258;2024-01-30T07:06:33;11.77;;;7.00;;
58446;SDS011;44240;51.840;7.258;2024-01-30T07:09:00;11.60;;;7.10;;
58446;SDS011;44240;51.840;7.258;2024-01-30T07:11:26;13.38;;;7.15;;
58446;SDS011;44240;51.840;7.258;2024-01-30T07:13:55;12.15;;;7.45;;
58446;SDS011;44240;51.840;7.258;2024-01-30T07:16:21;11.85;;;7.75;;
58446;SDS011;44240;51.840;7.258;2024-01-30T07:18:51;13.95;;;7.30;;
58446;SDS011;44240;51.840;7.258;2024-01-30T07:21:18;9.93;;;6.60;;
58446;SDS011;44240;51.840;7.258;2024-01-30T07:23:48;13.75;;;6.43;;
58446;SDS011;44240;51.840;7.258;2024-01-30T07:26:14;12.45;;;7.18;;
58446;SDS011;44240;51.840;7.258;2024-01-30T07:28:41;11.70;;;7.28;;
58446;SDS011;44240;51.840;7.258;2024-01-30T07:31:09;11.25;;;7.07;;
58446;SDS011;44240;51.840;7.258;2024-01-30T07:33:35;11.90;;;7.80;;
58446;SDS011;44240;51.840;7.258;2024-01-30T07:36:02;11.52;;;6.57;;
58446;SDS011;44240;51.840;7.258;2024-01-30T07:38:31;11.07;;;6.55;;
58446;SDS011;44240;51.840;7.258;2024-01-30T07:40:58;11.43;;;6.88;;
58446;SDS011;44240;51.840;7.258;2024-01-30T07:43:25;10.38;;;5.32;;
58446;SDS011;44240;51.840;7.258;2024-01-30T07:45:52;10.38;;;6.07;;
58446;SDS011;44240;51.840;7.258;2024-01-30T07:48:19;10.57;;;6.20;;
58446;SDS011;44240;51.840;7.258;2024-01-30T07:50:45;9.95;;;5.80;;
58446;SDS011;44240;51.840;7.258;2024-01-30T07:53:12;8.07;;;6.05;;
58446;SDS011;44240;51.840;7.258;2024-01-30T07:55:39;9.45;;;5.68;;
58446;SDS011;44240;51.840;7.258;2024-01-30T07:58:06;10.23;;;5.97;;
58446;SDS011;44240;51.840;7.258;2024-01-30T08:00:33;9.05;;;6.22;;
58446;SDS011;44240;51.840;7.258;2024-01-30T08:03:00;9.40;;;5.90;;
58446;SDS011;44240;51.840;7.258;2024-01-30T08:05:26;9.65;;;5.50;;
58446;SDS011;44240;51.840;7.258;2024-01-30T08:07:53;8.30;;;6.35;;
58446;SDS011;44240;51.840;7.258;2024-01-30T08:10:20;8.32;;;5.75;;
58446;SDS011;44240;51.840;7.258;2024-01-30T08:12:47;8.55;;;5.63;;
58446;SDS011;44240;51.840;7.258;2024-01-30T08:15:14;9.25;;;5.90;;
58446;SDS011;44240;51.840;7.258;2024-01-30T08:17:41;9.68;;;6.00;;
58446;SDS011;44240;51.840;7.258;2024-01-30T08:20:08;9.43;;;5.50;;
58446;SDS011;44240;51.840;7.258;2024-01-30T08:22:40;9.25;;;5.50;;
58446;SDS011;44240;51.840;7.258;2024-01-30T08:25:07;11.23;;;5.55;;
58446;SDS011;44240;51.840;7.258;2024-01-30T08:27:34;11.55;;;6.93;;
58446;SDS011;44240;51.840;7.258;2024-01-30T08:30:02;9.27;;;5.63;;
58446;SDS011;44240;51.840;7.258;2024-01-30T08:32:29;9.45;;;5.57;;
58446;SDS011;44240;51.840;7.258;2024-01-30T08:34:56;7.95;;;5.35;;
58446;SDS011;44240;51.840;7.258;2024-01-30T08:37:24;9.07;;;5.60;;
58446;SDS011;44240;51.840;7.258;2024-01-30T08:39:50;9.07;;;5.90;;
58446;SDS011;44240;51.840;7.258;2024-01-30T08:42:17;11.25;;;5.75;;
58446;SDS011;44240;51.840;7.258;2024-01-30T08:44:49;9.15;;;5.38;;
58446;SDS011;44240;51.840;7.258;2024-01-30T08:47:17;8.98;;;5.68;;
58446;SDS011;44240;51.840;7.258;2024-01-30T08:49:45;8.55;;;5.15;;
58446;SDS011;44240;51.840;7.258;2024-01-30T08:52:11;8.98;;;5.53;;
58446;SDS011;44240;51.840;7.258;2024-01-30T08:54:38;9.00;;;5.70;;
58446;SDS011;44240;51.840;7.258;2024-01-30T08:57:05;9.95;;;5.80;;
58446;SDS011;44240;51.840;7.258;2024-01-30T08:59:32;11.25;;;5.60;;
58446;SDS011;44240;51.840;7.258;2024-01-30T09:02:00;9.43;;;5.43;;
58446;SDS011;44240;51.840;7.258;2024-01-30T09:04:38;8.13;;;5.35;;
58446;SDS011;44240;51.840;7.258;2024-01-30T09:07:05;8.75;;;5.60;;
58446;SDS011;44240;51.840;7.258;2024-01-30T09:09:37;6.93;;;5.13;;
58446;SDS011;44240;51.840;7.258;2024-01-30T09:12:06;7.03;;;4.97;;
58446;SDS011;44240;51.840;7.258;2024-01-30T09:14:36;7.72;;;5.10;;
58446;SDS011;44240;51.840;7.258;2024-01-30T09:17:03;9.00;;;5.57;;
58446;SDS011;44240;51.840;7.258;2024-01-30T09:19:30;8.48;;;5.90;;
58446;SDS011;44240;51.840;7.258;2024-01-30T09:21:57;8.05;;;4.90;;
58446;SDS011;44240;51.840;7.258;2024-01-30T09:24:25;9.93;;;6.00;;
58446;SDS011;44240;51.840;7.258;2024-01-30T09:26:52;9.18;;;5.72;;
58446;SDS011;44240;51.840;7.258;2024-01-30T09:29:19;8.00;;;5.25;;
58446;SDS011;44240;51.840;7.258;2024-01-30T09:31:46;10.30;;;5.45;;
58446;SDS011;44240;51.840;7.258;2024-01-30T09:34:13;9.18;;;6.05;;
58446;SDS011;44240;51.840;7.258;2024-01-30T09:36:40;7.75;;;5.00;;
58446;SDS011;44240;51.840;7.258;2024-01-30T09:39:07;9.80;;;5.53;;
58446;SDS011;44240;51.840;7.258;2024-01-30T09:41:37;7.63;;;5.05;;
58446;SDS011;44240;51.840;7.258;2024-01-30T09:44:16;7.13;;;5.25;;
58446;SDS011;44240;51.840;7.258;2024-01-30T09:46:44;8.48;;;4.88;;
58446;SDS011;44240;51.840;7.258;2024-01-30T09:49:13;8.25;;;5.47;;
58446;SDS011;44240;51.840;7.258;2024-01-30T09:51:42;8.40;;;4.45;;
58446;SDS011;44240;51.840;7.258;2024-01-30T09:54:10;8.35;;;4.80;;
58446;SDS011;44240;51.840;7.258;2024-01-30T09:56:40;8.27;;;5.30;;
58446;SDS011;44240;51.840;7.258;2024-01-30T09:59:07;7.93;;;4.82;;
58446;SDS011;44240;51.840;7.258;2024-01-30T10:01:34;8.48;;;4.68;;
58446;SDS011;44240;51.840;7.258;2024-01-30T10:04:03;8.80;;;5.85;;
58446;SDS011;44240;51.840;7.258;2024-01-30T10:06:30;9.63;;;5.32;;
58446;SDS011;44240;51.840;7.258;2024-01-30T10:08:57;10.40;;;5.45;;
58446;SDS011;44240;51.840;7.258;2024-01-30T10:11:24;9.35;;;4.38;;
58446;SDS011;44240;51.840;7.258;2024-01-30T10:13:51;6.05;;;4.55;;
58446;SDS011;44240;51.840;7.258;2024-01-30T10:16:18;8.27;;;4.53;;
58446;SDS011;44240;51.840;7.258;2024-01-30T10:18:45;6.78;;;4.72;;
58446;SDS011;44240;51.840;7.258;2024-01-30T10:21:12;6.95;;;4.30;;
58446;SDS011;44240;51.840;7.258;2024-01-30T10:23:39;8.27;;;4.47;;
58446;SDS011;44240;51.840;7.258;2024-01-30T10:26:07;7.15;;;4.57;;
58446;SDS011;44240;51.840;7.258;2024-01-30T10:28:34;8.07;;;4.63;;
58446;SDS011;44240;51.840;7.258;2024-01-30T10:31:01;5.57;;;3.97;;
58446;SDS011;44240;51.840;7.258;2024-01-30T10:33:32;10.48;;;4.70;;
58446;SDS011;44240;51.840;7.258;2024-01-30T10:36:05;5.38;;;3.80;;
58446;SDS011;44240;51.840;7.258;2024-01-30T10:38:33;9.88;;;4.47;;
58446;SDS011;44240;51.840;7.258;2024-01-30T10:41:00;7.72;;;4.50;;
58446;SDS011;44240;51.840;7.258;2024-01-30T10:46:05;10.38;;;4.60;;
58446;SDS011;44240;51.840;7.258;2024-01-30T10:51:03;9.27;;;4.07;;
58446;SDS011;44240;51.840;7.258;2024-01-30T10:53:31;7.72;;;5.07;;
58446;SDS011;44240;51.840;7.258;2024-01-30T10:55:58;5.85;;;4.35;;
58446;SDS011;44240;51.840;7.258;2024-01-30T10:58:27;7.10;;;4.40;;
58446;SDS011;44240;51.840;7.258;2024-01-30T11:00:54;7.05;;;4.20;;
58446;SDS011;44240;51.840;7.258;2024-01-30T11:03:21;6.63;;;4.53;;
58446;SDS011;44240;51.840;7.258;2024-01-30T11:05:49;9.07;;;4.82;;
58446;SDS011;44240;51.840;7.258;2024-01-30T11:08:26;9.55;;;4.78;;
58446;SDS011;44240;51.840;7.258;2024-01-30T11:10:58;7.80;;;4.45;;
58446;SDS011;44240;51.840;7.258;2024-01-30T11:13:31;9.23;;;5.15;;
58446;SDS011;44240;51.840;7.258;2024-01-30T11:16:02;8.55;;;4.45;;
58446;SDS011;44240;51.840;7.258;2024-01-30T11:18:33;8.48;;;4.57;;
58446;SDS011;44240;51.840;7.258;2024-01-30T11:21:01;9.13;;;4.75;;
58446;SDS011;44240;51.840;7.258;2024-01-30T11:23:32;10.00;;;5.22;;
58446;SDS011;44240;51.840;7.258;2024-01-30T11:26:00;7.10;;;4.18;;
58446;SDS011;44240;51.840;7.258;2024-01-30T11:28:31;7.22;;;4.65;;
58446;SDS011;44240;51.840;7.258;2024-01-30T11:31:04;10.38;;;5.43;;
58446;SDS011;44240;51.840;7.258;2024-01-30T11:33:33;7.63;;;5.07;;
58446;SDS011;44240;51.840;7.258;2024-01-30T11:36:01;7.78;;;4.78;;
58446;SDS011;44240;51.840;7.258;2024-01-30T11:38:28;6.55;;;4.07;;
58446;SDS011;44240;51.840;7.258;2024-01-30T11:40:56;7.35;;;4.72;;
58446;SDS011;44240;51.840;7.258;2024-01-30T11:43:25;8.27;;;4.97;;
58446;SDS011;44240;51.840;7.258;2024-01-30T11:45:52;10.65;;;4.38;;
58446;SDS011;44240;51.840;7.258;2024-01-30T11:48:19;6.80;;;4.43;;
58446;SDS011;44240;51.840;7.258;2024-01-30T11:50:46;9.00;;;4.22;;
58446;SDS011;44240;51.840;7.258;2024-01-30T11:53:13;9.68;;;4.82;;
58446;SDS011;44240;51.840;7.258;2024-01-30T11:55:40;9.25;;;5.38;;
58446;SDS011;44240;51.840;7.258;2024-01-30T11:58:07;9.20;;;5.13;;
58446;SDS011;44240;51.840;7.258;2024-01-30T12:00:34;10.50;;;4.88;;
58446;SDS011;44240;51.840;7.258;2024-01-30T12:03:02;9.23;;;4.45;;
58446;SDS011;44240;51.840;7.258;2024-01-30T12:05:30;10.00;;;5.18;;
58446;SDS011;44240;51.840;7.258;2024-01-30T12:07:58;7.47;;;4.65;;
58446;SDS011;44240;51.840;7.258;2024-01-30T12:10:27;9.02;;;5.00;;
58446;SDS011;44240;51.840;7.258;2024-01-30T12:12:54;7.45;;;4.65;;
58446;SDS011;44240;51.840;7.258;2024-01-30T12:15:22;6.57;;;4.80;;
58446;SDS011;44240;51.840;7.258;2024-01-30T12:17:49;8.02;;;4.65;;
58446;SDS011;44240;51.840;7.258;2024-01-30T12:20:19;8.02;;;5.07;;
58446;SDS011;44240;51.840;7.258;2024-01-30T12:22:48;7.68;;;5.07;;
58446;SDS011;44240;51.840;7.258;2024-01-30T12:25:17;8.90;;;4.85;;
58446;SDS011;44240;51.840;7.258;2024-01-30T12:27:48;7.07;;;4.30;;
58446;SDS011;44240;51.840;7.258;2024-01-30T12:30:19;8.98;;;4.75;;
58446;SDS011;44240;51.840;7.258;2024-01-30T12:32:49;7.75;;;5.05;;
58446;SDS011;44240;51.840;7.258;2024-01-30T12:35:18;7.97;;;4.47;;
58446;SDS011;44240;51.840;7.258;2024-01-30T12:37:47;7.82;;;5.13;;
58446;SDS011;44240;51.840;7.258;2024-01-30T12:40:15;8.38;;;4.72;;
58446;SDS011;44240;51.840;7.258;2024-01-30T12:42:43;9.07;;;4.93;;
58446;SDS011;44240;51.840;7.258;2024-01-30T12:45:15;8.15;;;4.57;;
58446;SDS011;44240;51.840;7.258;2024-01-30T12:47:42;6.97;;;4.43;;
58446;SDS011;44240;51.840;7.258;2024-01-30T12:50:09;9.10;;;5.85;;
58446;SDS011;44240;51.840;7.258;2024-01-30T12:52:36;9.32;;;5.78;;
58446;SDS011;44240;51.840;7.258;2024-01-30T12:55:03;9.00;;;5.30;;
58446;SDS011;44240;51.840;7.258;2024-01-30T12:57:31;10.35;;;5.35;;
58446;SDS011;44240;51.840;7.258;2024-01-30T12:59:57;8.15;;;5.35;;
58446;SDS011;44240;51.840;7.258;2024-01-30T13:02:24;8.80;;;5.20;;
58446;SDS011;44240;51.840;7.258;2024-01-30T13:04:52;9.70;;;5.22;;
58446;SDS011;44240;51.840;7.258;2024-01-30T13:07:20;9.88;;;5.10;;
58446;SDS011;44240;51.840;7.258;2024-01-30T13:09:47;10.48;;;4.90;;
58446;SDS011;44240;51.840;7.258;2024-01-30T13:12:14;8.05;;;5.00;;
58446;SDS011;44240;51.840;7.258;2024-01-30T13:14:40;8.93;;;5.20;;
58446;SDS011;44240;51.840;7.258;2024-01-30T13:17:07;9.85;;;5.18;;
58446;SDS011;44240;51.840;7.258;2024-01-30T13:19:34;8.07;;;5.57;;
58446;SDS011;44240;51.840;7.258;2024-01-30T13:22:01;7.30;;;4.35;;
58446;SDS011;44240;51.840;7.258;2024-01-30T13:24:28;9.25;;;5.45;;
58446;SDS011;44240;51.840;7.258;2024-01-30T13:26:54;6.72;;;4.55;;
58446;SDS011;44240;51.840;7.258;2024-01-30T13:29:21;7.22;;;4.50;;
58446;SDS011;44240;51.840;7.258;2024-01-30T13:31:48;6.78;;;4.90;;
58446;SDS011;44240;51.840;7.258;2024-01-30T13:34:15;9.00;;;4.85;;
58446;SDS011;44240;51.840;7.258;2024-01-30T13:36:42;8.25;;;4.55;;
58446;SDS011;44240;51.840;7.258;2024-01-30T13:39:09;7.25;;;5.30;;
58446;SDS011;44240;51.840;7.258;2024-01-30T13:41:37;10.05;;;4.75;;
58446;SDS011;44240;51.840;7.258;2024-01-30T13:44:04;7.20;;;4.78;;
58446;SDS011;44240;51.840;7.258;2024-01-30T13:46:31;7.72;;;5.00;;
58446;SDS011;44240;51.840;7.258;2024-01-30T13:48:58;8.60;;;5.05;;
58446;SDS011;44240;51.840;7.258;2024-01-30T13:51:26;8.40;;;4.60;;
58446;SDS011;44240;51.840;7.258;2024-01-30T13:53:53;8.82;;;4.10;;
58446;SDS011;44240;51.840;7.258;2024-01-30T13:56:20;6.57;;;3.85;;
58446;SDS011;44240;51.840;7.258;2024-01-30T13:58:50;7.55;;;5.57;;
58446;SDS011;44240;51.840;7.258;2024-01-30T14:01:17;7.15;;;4.13;;
58446;SDS011;44240;51.840;7.258;2024-01-30T14:03:45;7.25;;;4.53;;
58446;SDS011;44240;51.840;7.258;2024-01-30T14:06:12;7.18;;;5.07;;
58446;SDS011;44240;51.840;7.258;2024-01-30T14:08:39;7.97;;;4.70;;
58446;SDS011;44240;51.840;7.258;2024-01-30T14:11:08;10.23;;;5.25;;
58446;SDS011;44240;51.840;7.258;2024-01-30T14:13:36;9.35;;;5.78;;
58446;SDS011;44240;51.840;7.258;2024-01-30T14:16:02;9.93;;;5.72;;
58446;SDS011;44240;51.840;7.258;2024-01-30T14:18:32;7.93;;;5.53;;
58446;SDS011;44240;51.840;7.258;2024-01-30T14:20:58;7.82;;;4.78;;
58446;SDS011;44240;51.840;7.258;2024-01-30T14:23:25;7.85;;;5.35;;
58446;SDS011;44240;51.840;7.258;2024-01-30T14:25:52;10.55;;;5.45;;
58446;SDS011;44240;51.840;7.258;2024-01-30T14:28:19;9.73;;;5.38;;
58446;SDS011;44240;51.840;7.258;2024-01-30T14:30:45;6.78;;;4.90;;
58446;SDS011;44240;51.840;7.258;2024-01-30T14:33:13;9.25;;;5.38;;
58446;SDS011;44240;51.840;7.258;2024-01-30T14:35:40;8.63;;;5.72;;
58446;SDS011;44240;51.840;7.258;2024-01-30T14:38:06;8.73;;;5.60;;
58446;SDS011;44240;51.840;7.258;2024-01-30T14:40:34;8.10;;;4.95;;
58446;SDS011;44240;51.840;7.258;2024-01-30T14:43:01;8.13;;;5.47;;
58446;SDS011;44240;51.840;7.258;2024-01-30T14:45:28;9.50;;;5.32;;
58446;SDS011;44240;51.840;7.258;2024-01-30T14:47:54;6.93;;;5.35;;